Time;durP1;ratioP1;P1;durP2;ratioP2;P2;SDS_P1;SDS_P2;PMS_P1;PMS_P2;Temp;Humidity;BMP_temperature;BMP_pressure;BME280_temperature;BME280_humidity;BME280_pressure;Samples;Min_cycle;Max_cycle;Signal;HPM_P1;HPM_P2
2023/08/07 00:00:00;;;;;;;;;;;;;;;25.22;48.27;98774.31;348837;28;959;-76
2023/08/07 00:00:11;;;;;;;;;;;;;;;25.23;48.31;98774.13;350133;28;863;-76
2023/08/07 00:00:22;;;;;;;;;;;;;;;25.24;48.16;98778.47;348820;28;1048;-75
2023/08/07 00:00:32;;;;;;;;;;;;;;;25.23;48.23;98774.13;348863;28;908;-75
2023/08/07 00:00:42;;;;;;;;;;;;;;;25.19;48.32;98776.34;350709;28;1025;-75
2023/08/07 00:00:53;;;;;;;;;;;;;;;25.15;48.30;98769.66;350256;28;1214;-75
2023/08/07 00:01:03;;;;;;;;;;;;;;;25.15;48.43;98771.50;350866;28;1464;-75
2023/08/07 00:01:13;;;;;;;;;;;;;;;25.14;48.37;98769.84;347395;28;876;-75
2023/08/07 00:01:24;;;;;;;;;;;;;;;25.14;48.59;98778.69;348957;28;1106;-75
2023/08/07 00:01:34;;;;;;;;;;;;;;;25.14;48.27;98773.34;349071;28;1447;-75
2023/08/07 00:01:44;;;;;;;;;;;;;;;25.16;48.79;98768.66;344809;28;1231;-75
2023/08/07 00:01:54;;;;;;;;;;;;;;;25.16;48.60;98776.69;346114;28;1279;-75
2023/08/07 00:02:06;;;;;;;;;;;;;;;25.18;48.56;98773.81;346209;28;883;-75
2023/08/07 00:02:16;;;;;;;;;;;;;;;25.18;48.57;98774.66;347296;28;910;-75
2023/08/07 00:02:27;;;;;;;;;;;;;;;25.17;48.47;98778.34;347626;28;1214;-75
2023/08/07 00:02:37;;;;;;;;;;;;;;;25.17;48.55;98777.53;347486;28;1212;-75
2023/08/07 00:02:47;;;;;;;;;;;;;;;25.16;48.36;98770.50;346652;28;1227;-75
2023/08/07 00:02:57;;;;;;;;;;;;;;;25.15;48.39;98771.50;344520;28;1292;-75
2023/08/07 00:03:08;;;;;;;;;;;;;;;25.14;48.56;98777.88;347340;28;1579;-75
2023/08/07 00:03:18;;;;;;;;;;;;;;;25.13;48.35;98769.00;345853;28;1321;-75
2023/08/07 00:03:28;;;;;;;;;;;;;;;25.12;48.32;98770.03;343347;28;1249;-75
2023/08/07 00:03:38;;;;;;;;;;;;;;;25.11;48.57;98773.72;342096;28;1189;-75
2023/08/07 00:03:49;;;;;;;;;;;;;;;25.11;48.44;98772.91;346098;28;1495;-75
2023/08/07 00:03:59;;;;;;;;;;;;;;;25.11;48.55;98772.91;347211;28;860;-75
2023/08/07 00:04:09;;;;;;;;;;;;;;;25.12;48.66;98771.88;345899;28;1359;-75
2023/08/07 00:04:19;;;;;;;;;;;;;;;25.13;48.55;98776.19;344788;28;785;-75
2023/08/07 00:04:30;;;;;;;;;;;;;;;25.13;48.45;98766.31;345968;28;1467;-75
2023/08/07 00:04:40;;;;;;;;;;;;;;;25.15;48.55;98777.69;347379;28;1213;-76
2023/08/07 00:04:50;;;;;;;;;;;;;;;25.16;48.57;98767.81;346237;28;813;-76
2023/08/07 00:05:00;;;;;;;;;;;;;;;25.15;48.27;98768.81;345845;28;1176;-76
2023/08/07 00:05:11;;;;;;;;;;;;;;;25.15;48.37;98771.50;346350;28;1529;-76
2023/08/07 00:05:21;;;;;;;;;;;;;;;25.15;48.41;98772.34;347417;28;1327;-76
2023/08/07 00:05:31;;;;;;;;;;;;;;;25.16;48.46;98770.50;346853;28;1943;-76
2023/08/07 00:05:41;;;;;;;;;;;;;;;25.16;48.68;98773.16;346170;28;1351;-76
2023/08/07 00:05:52;;;;;;;;;;;;;;;25.17;48.63;98774.84;343836;28;1561;-76
2023/08/07 00:06:02;;;;;;;;;;;;;;;25.17;48.45;98774.84;345741;28;1368;-76
2023/08/07 00:06:12;;;;;;;;;;;;;;;25.17;48.61;98772.16;347868;28;1180;-76
2023/08/07 00:06:22;;;;;;;;;;;;;;;25.18;48.60;98780.03;348920;28;882;-76
2023/08/07 00:06:33;;;;;;;;;;;;;;;25.17;48.48;98773.00;344808;28;1513;-76
2023/08/07 00:06:43;;;;;;;;;;;;;;;25.18;48.54;98779.19;344009;28;1931;-76
2023/08/07 00:06:53;;;;;;;;;;;;;;;25.17;48.68;98772.16;343491;28;936;-76
2023/08/07 00:07:03;;;;;;;;;;;;;;;25.18;48.65;98768.47;340569;28;1630;-75
2023/08/07 00:07:14;;;;;;;;;;;;;;;25.17;48.76;98769.47;337437;29;2104;-75
2023/08/07 00:07:25;;;;;;;;;;;;;;;25.17;48.27;98769.47;338109;29;1339;-75
2023/08/07 00:07:35;;;;;;;;;;;;;;;25.17;48.60;98767.63;329192;29;1482;-75
2023/08/07 00:07:46;;;;;;;;;;;;;;;25.17;48.34;98774.84;332218;29;1558;-75
2023/08/07 00:07:56;;;;;;;;;;;;;;;25.16;48.23;98771.31;333574;29;1822;-75
2023/08/07 00:08:06;;;;;;;;;;;;;;;25.17;48.55;98766.81;333943;29;2713;-75
2023/08/07 00:08:17;;;;;;;;;;;;;;;25.15;48.24;98763.47;333423;29;3116;-75
2023/08/07 00:08:27;;;;;;;;;;;;;;;25.13;48.15;98765.50;333380;29;2830;-75
2023/08/07 00:08:38;;;;;;;;;;;;;;;25.13;48.43;98770.84;334275;29;799;-75
2023/08/07 00:08:48;;;;;;;;;;;;;;;25.13;48.37;98770.84;329544;29;2922;-75
2023/08/07 00:08:58;;;;;;;;;;;;;;;25.12;48.30;98772.72;331118;29;2410;-75
2023/08/07 00:09:08;;;;;;;;;;;;;;;25.13;48.32;98776.19;330415;29;1209;-75
2023/08/07 00:09:19;;;;;;;;;;;;;;;25.11;48.37;98771.06;329964;29;2440;-75
2023/08/07 00:09:29;;;;;;;;;;;;;;;25.11;48.28;98767.53;332407;29;2624;-75
2023/08/07 00:09:39;;;;;;;;;;;;;;;25.09;48.62;98770.38;333093;29;1353;-75
2023/08/07 00:09:49;;;;;;;;;;;;;;;25.10;48.52;98779.25;326588;30;2689;-75
2023/08/07 00:10:01;;;;;;;;;;;;;;;25.10;48.76;98769.38;329061;29;1912;-75
2023/08/07 00:10:11;;;;;;;;;;;;;;;25.09;48.66;98765.03;330179;29;1478;-75
2023/08/07 00:10:21;;;;;;;;;;;;;;;25.09;48.89;98765.03;329188;30;1111;-75
2023/08/07 00:10:31;;;;;;;;;;;;;;;25.09;48.92;98769.56;329284;29;2111;-75
2023/08/07 00:10:42;;;;;;;;;;;;;;;25.08;48.76;98774.06;327404;29;2616;-75
2023/08/07 00:10:52;;;;;;;;;;;;;;;25.08;48.57;98774.06;326767;30;1134;-75
2023/08/07 00:11:08;;;;;;;;;;;;;;;25.09;48.68;98767.72;327207;30;3000;-75
2023/08/07 00:11:18;;;;;;;;;;;;;;;25.10;48.47;98779.25;322694;30;3313;-75
2023/08/07 00:11:29;;;;;;;;;;;;;;;25.10;48.64;98771.22;323738;30;3190;-75
2023/08/07 00:11:39;;;;;;;;;;;;;;;25.12;48.68;98763.84;324429;30;1377;-76
2023/08/07 00:11:49;;;;;;;;;;;;;;;25.11;48.65;98772.91;320645;30;3606;-75
2023/08/07 00:11:59;;;;;;;;;;;;;;;25.12;48.78;98769.22;319962;30;3538;-75
2023/08/07 00:12:10;;;;;;;;;;;;;;;25.10;48.46;98771.22;320230;30;2488;-75
2023/08/07 00:12:20;;;;;;;;;;;;;;;25.09;48.73;98769.56;319723;30;1314;-75
2023/08/07 00:12:30;;;;;;;;;;;;;;;25.08;48.66;98776.75;316913;31;2272;-75
2023/08/07 00:12:41;;;;;;;;;;;;;;;25.09;48.42;98769.56;314087;31;2798;-75
2023/08/07 00:12:51;;;;;;;;;;;;;;;25.08;48.69;98775.91;318649;31;833;-75
2023/08/07 00:13:01;;;;;;;;;;;;;;;25.08;48.82;98775.91;318617;30;3726;-75
2023/08/07 00:13:11;;;;;;;;;;;;;;;25.07;48.82;98782.28;317473;31;4193;-75
2023/08/07 00:13:21;;;;;;;;;;;;;;;25.06;48.61;98777.94;314158;31;771;-75
2023/08/07 00:13:32;;;;;;;;;;;;;;;25.05;48.76;98778.94;313239;31;4468;-75
2023/08/07 00:13:42;;;;;;;;;;;;;;;25.03;48.63;98775.59;312833;31;4320;-75
2023/08/07 00:13:52;;;;;;;;;;;;;;;25.04;48.94;98778.13;310803;31;1309;-75
2023/08/07 00:14:02;;;;;;;;;;;;;;;25.04;48.80;98777.28;305874;32;4564;-75
2023/08/07 00:14:13;;;;;;;;;;;;;;;25.06;48.70;98775.25;307082;31;4580;-75
2023/08/07 00:14:23;;;;;;;;;;;;;;;25.07;48.60;98779.59;306269;32;1400;-75
2023/08/07 00:14:33;;;;;;;;;;;;;;;25.07;48.63;98772.41;303718;32;3264;-75
2023/08/07 00:14:43;;;;;;;;;;;;;;;25.09;48.63;98777.59;305217;32;2799;-75
2023/08/07 00:14:54;;;;;;;;;;;;;;;25.09;48.23;98772.22;307822;32;1122;-75
2023/08/07 00:15:04;;;;;;;;;;;;;;;25.09;48.82;98780.25;303696;32;4012;-75
2023/08/07 00:15:14;;;;;;;;;;;;;;;25.06;48.74;98778.78;302996;32;5573;-75
2023/08/07 00:15:25;;;;;;;;;;;;;;;25.07;48.34;98782.28;303568;32;5039;-75
2023/08/07 00:15:37;;;;;;;;;;;;;;;25.06;48.37;98781.44;298069;33;790;-75
2023/08/07 00:15:47;;;;;;;;;;;;;;;25.08;48.57;98773.25;295872;33;6436;-75
2023/08/07 00:15:57;;;;;;;;;;;;;;;25.05;48.63;98781.63;295739;33;5724;-75
2023/08/07 00:16:08;;;;;;;;;;;;;;;25.06;48.67;98777.94;298008;33;914;-75
2023/08/07 00:16:18;;;;;;;;;;;;;;;25.05;48.49;98778.94;298386;32;6291;-75
2023/08/07 00:16:28;;;;;;;;;;;;;;;25.02;48.46;98779.28;297797;32;6411;-75
2023/08/07 00:16:38;;;;;;;;;;;;;;;25.00;48.68;98781.31;294998;33;1204;-75
2023/08/07 00:16:48;;;;;;;;;;;;;;;24.99;48.63;98785.00;296097;33;4926;-75
2023/08/07 00:16:59;;;;;;;;;;;;;;;24.99;48.76;98785.00;296006;33;4154;-75
2023/08/07 00:17:09;;;;;;;;;;;;;;;24.99;48.42;98785.00;295958;33;772;-75
2023/08/07 00:17:19;;;;;;;;;;;;;;;24.99;48.56;98775.13;291362;33;6474;-75
2023/08/07 00:17:29;;;;;;;;;;;;;;;24.99;48.59;98780.47;292881;33;7217;-75
2023/08/07 00:17:40;;;;;;;;;;;;;;;25.00;48.37;98771.44;296195;33;7896;-75
2023/08/07 00:17:51;;;;;;;;;;;;;;;25.00;48.51;98775.97;293984;33;2888;-75
2023/08/07 00:18:01;;;;;;;;;;;;;;;25.00;48.71;98775.97;292208;33;8329;-75
2023/08/07 00:18:11;;;;;;;;;;;;;;;25.02;48.69;98779.28;288928;33;7519;-75
2023/08/07 00:18:21;;;;;;;;;;;;;;;25.02;48.80;98776.63;290211;34;1041;-75
2023/08/07 00:18:32;;;;;;;;;;;;;;;25.00;48.62;98775.97;290879;33;9013;-75
2023/08/07 00:18:42;;;;;;;;;;;;;;;25.00;48.65;98771.44;290122;33;9119;-75
2023/08/07 00:18:55;;;;;;;;;;;;;;;25.00;48.62;98771.44;291158;34;819;-75
2023/08/07 00:19:06;;;;;;;;;;;;;;;24.99;48.66;98775.13;285361;34;1667;-75
2023/08/07 00:19:16;;;;;;;;;;;;;;;25.00;48.72;98773.28;280664;34;6099;-75
2023/08/07 00:21:02;;;;;;;;;;;;;;;24.94;49.18;98774.78;2500349;27;19933;-74
2023/08/07 00:21:12;;;;;;;;;;;;;;;24.95;48.95;98773.78;355882;27;930;-76
2023/08/07 00:21:23;;;;;;;;;;;;;;;24.97;49.03;98768.28;354617;27;867;-76
2023/08/07 00:21:35;;;;;;;;;;;;;;;24.98;48.77;98777.97;353191;27;1420;-76
2023/08/07 00:21:45;;;;;;;;;;;;;;;24.99;49.06;98769.78;353898;27;1260;-75
2023/08/07 00:21:56;;;;;;;;;;;;;;;25.00;48.81;98773.28;354577;27;906;-75
2023/08/07 00:22:06;;;;;;;;;;;;;;;25.01;48.90;98775.78;351195;28;1540;-75
2023/08/07 00:22:16;;;;;;;;;;;;;;;25.02;48.87;98771.25;350085;28;1380;-75
2023/08/07 00:22:26;;;;;;;;;;;;;;;25.02;49.07;98773.94;349252;28;1331;-75
2023/08/07 00:22:36;;;;;;;;;;;;;;;25.01;48.92;98772.28;347532;28;1352;-75
2023/08/07 00:22:47;;;;;;;;;;;;;;;25.02;49.01;98768.59;348957;28;875;-75
2023/08/07 00:22:57;;;;;;;;;;;;;;;25.02;48.61;98765.91;349722;28;1310;-75
2023/08/07 00:23:07;;;;;;;;;;;;;;;25.03;48.86;98764.91;350092;28;1097;-75
2023/08/07 00:23:17;;;;;;;;;;;;;;;25.03;48.81;98768.41;350187;28;1298;-75
2023/08/07 00:23:28;;;;;;;;;;;;;;;25.03;48.74;98767.56;351597;28;1407;-75
2023/08/07 00:23:38;;;;;;;;;;;;;;;25.02;48.80;98769.41;351803;28;788;-75
2023/08/07 00:23:49;;;;;;;;;;;;;;;25.03;48.86;98772.94;350190;28;1428;-75
2023/08/07 00:23:59;;;;;;;;;;;;;;;25.03;48.94;98770.25;350327;28;910;-75
2023/08/07 00:24:10;;;;;;;;;;;;;;;25.03;48.69;98771.09;350074;28;1109;-75
2023/08/07 00:24:20;;;;;;;;;;;;;;;25.02;48.57;98780.13;348787;28;1280;-75
2023/08/07 00:24:30;;;;;;;;;;;;;;;25.04;48.76;98771.94;347446;28;1247;-75
2023/08/07 00:24:40;;;;;;;;;;;;;;;25.03;49.03;98765.72;348843;28;868;-75
2023/08/07 00:24:51;;;;;;;;;;;;;;;25.04;48.69;98771.94;348659;28;1417;-75
2023/08/07 00:25:01;;;;;;;;;;;;;;;25.03;48.79;98770.25;347542;28;1223;-75
2023/08/07 00:25:11;;;;;;;;;;;;;;;25.02;48.60;98763.22;346732;28;856;-75
2023/08/07 00:25:21;;;;;;;;;;;;;;;25.02;48.67;98768.59;347446;28;1424;-75
2023/08/07 00:25:32;;;;;;;;;;;;;;;25.02;48.72;98765.91;349034;28;882;-75
2023/08/07 00:25:42;;;;;;;;;;;;;;;25.03;48.75;98772.94;349168;28;832;-75
2023/08/07 00:25:52;;;;;;;;;;;;;;;24.99;48.79;98769.78;349275;28;1170;-75
2023/08/07 00:26:02;;;;;;;;;;;;;;;24.98;48.84;98769.94;350355;28;777;-75
2023/08/07 00:26:12;;;;;;;;;;;;;;;24.96;48.71;98770.13;347145;28;1517;-75
2023/08/07 00:26:23;;;;;;;;;;;;;;;24.90;49.07;98775.31;346338;28;1463;-75
2023/08/07 00:26:33;;;;;;;;;;;;;;;24.88;49.21;98773.63;347084;28;1274;-75
2023/08/07 00:26:43;;;;;;;;;;;;;;;24.88;49.28;98776.31;345723;28;1311;-75
2023/08/07 00:26:53;;;;;;;;;;;;;;;24.86;49.31;98772.97;345591;28;2386;-75
2023/08/07 00:27:04;;;;;;;;;;;;;;;24.89;49.51;98774.47;343630;28;3120;-75
2023/08/07 00:27:14;;;;;;;;;;;;;;;24.88;49.36;98770.94;341163;28;4779;-76
2023/08/07 00:27:24;;;;;;;;;;;;;;;24.90;49.24;98775.31;345408;28;3212;-76
2023/08/07 00:27:34;;;;;;;;;;;;;;;24.90;49.10;98780.66;348762;28;2931;-76
2023/08/07 00:27:45;;;;;;;;;;;;;;;24.90;49.02;98772.63;351447;28;1296;-76
2023/08/07 00:27:55;;;;;;;;;;;;;;;24.88;49.07;98773.63;347758;28;960;-76
2023/08/07 00:28:05;;;;;;;;;;;;;;;24.90;49.02;98775.31;349000;28;867;-76
2023/08/07 00:28:15;;;;;;;;;;;;;;;24.91;49.31;98777.81;347384;28;1364;-76
2023/08/07 00:28:26;;;;;;;;;;;;;;;24.93;49.07;98780.31;346714;28;1227;-76
2023/08/07 00:28:36;;;;;;;;;;;;;;;24.93;49.05;98781.13;347464;28;927;-76
2023/08/07 00:28:46;;;;;;;;;;;;;;;24.93;48.96;98769.59;348814;28;1450;-76
2023/08/07 00:28:56;;;;;;;;;;;;;;;24.94;48.80;98776.63;345208;28;1331;-76
2023/08/07 00:29:07;;;;;;;;;;;;;;;24.94;49.03;98776.63;343098;28;1457;-76
2023/08/07 00:29:17;;;;;;;;;;;;;;;24.92;49.05;98778.63;343427;28;832;-76
2023/08/07 00:29:27;;;;;;;;;;;;;;;24.91;49.09;98776.97;342792;28;1378;-76
2023/08/07 00:29:38;;;;;;;;;;;;;;;24.90;49.12;98772.63;343242;28;1676;-76
2023/08/07 00:29:48;;;;;;;;;;;;;;;24.90;48.90;98780.66;343463;28;1065;-76
2023/08/07 00:29:59;;;;;;;;;;;;;;;24.89;49.07;98779.81;338639;29;1347;-76
2023/08/07 00:30:09;;;;;;;;;;;;;;;24.88;49.15;98778.16;338377;29;853;-76
2023/08/07 00:30:19;;;;;;;;;;;;;;;24.89;49.37;98779.81;339524;29;885;-76
2023/08/07 00:30:29;;;;;;;;;;;;;;;24.91;49.08;98785.00;338555;29;1442;-76
2023/08/07 00:30:40;;;;;;;;;;;;;;;24.89;48.96;98779.81;339243;29;1325;-76
2023/08/07 00:30:50;;;;;;;;;;;;;;;24.89;49.01;98779.81;339467;29;1390;-76
2023/08/07 00:31:00;;;;;;;;;;;;;;;24.90;49.17;98775.31;337952;29;1395;-76
2023/08/07 00:31:12;;;;;;;;;;;;;;;24.90;49.02;98792.19;335119;29;1816;-76
2023/08/07 00:31:22;;;;;;;;;;;;;;;24.88;49.09;98787.00;334823;29;1711;-76
2023/08/07 00:31:32;;;;;;;;;;;;;;;24.90;49.31;98783.34;337031;29;1542;-76
2023/08/07 00:31:42;;;;;;;;;;;;;;;24.90;49.09;98784.16;335662;29;1975;-76
2023/08/07 00:31:53;;;;;;;;;;;;;;;24.91;49.32;98776.97;336673;29;2096;-76
2023/08/07 00:32:03;;;;;;;;;;;;;;;24.91;49.17;98779.66;334297;29;1315;-76
2023/08/07 00:32:13;;;;;;;;;;;;;;;24.87;49.04;98782.66;336835;29;1731;-76
2023/08/07 00:32:23;;;;;;;;;;;;;;;24.86;49.27;98781.00;337118;29;894;-76
2023/08/07 00:32:34;;;;;;;;;;;;;;;24.87;49.12;98787.19;339516;29;794;-76
2023/08/07 00:32:44;;;;;;;;;;;;;;;24.87;49.24;98774.63;336940;29;1310;-76
2023/08/07 00:32:55;;;;;;;;;;;;;;;24.86;49.41;98781.00;337971;29;1905;-76
2023/08/07 00:33:05;;;;;;;;;;;;;;;24.86;49.20;98774.81;336805;29;1287;-76
2023/08/07 00:33:15;;;;;;;;;;;;;;;24.85;49.14;98779.34;335059;29;1640;-76
2023/08/07 00:33:25;;;;;;;;;;;;;;;24.85;49.01;98779.34;334706;29;1963;-76
2023/08/07 00:33:35;;;;;;;;;;;;;;;24.86;49.23;98782.84;333051;29;1229;-76
2023/08/07 00:33:46;;;;;;;;;;;;;;;24.86;49.25;98785.53;330588;29;752;-76
2023/08/07 00:33:57;;;;;;;;;;;;;;;24.86;49.22;98781.00;332221;29;2991;-76
2023/08/07 00:34:09;;;;;;;;;;;;;;;24.86;49.27;98778.31;331438;29;2625;-76
2023/08/07 00:34:19;;;;;;;;;;;;;;;24.86;49.18;98783.69;330537;29;1257;-76
2023/08/07 00:34:29;;;;;;;;;;;;;;;24.87;49.00;98788.03;330403;29;1849;-76
2023/08/07 00:34:40;;;;;;;;;;;;;;;24.87;49.09;98782.66;330824;29;1378;-75
2023/08/07 00:34:50;;;;;;;;;;;;;;;24.88;49.76;98781.66;331683;29;1026;-75
2023/08/07 00:35:00;;;;;;;;;;;;;;;24.89;49.17;98787.84;332562;29;2088;-75
2023/08/07 00:35:10;;;;;;;;;;;;;;;24.88;49.33;98787.00;327945;29;2120;-75
2023/08/07 00:35:21;;;;;;;;;;;;;;;24.87;49.30;98788.03;325671;30;2188;-75
2023/08/07 00:35:31;;;;;;;;;;;;;;;24.88;49.28;98786.19;320847;30;1356;-75
2023/08/07 00:35:41;;;;;;;;;;;;;;;24.88;49.24;98784.34;319614;30;3148;-75
2023/08/07 00:35:51;;;;;;;;;;;;;;;24.88;49.35;98787.00;320285;30;3613;-75
2023/08/07 00:36:01;;;;;;;;;;;;;;;24.88;49.40;98784.34;318615;31;936;-75
2023/08/07 00:36:12;;;;;;;;;;;;;;;24.87;49.52;98788.03;314965;31;3520;-75
2023/08/07 00:36:22;;;;;;;;;;;;;;;24.86;49.16;98783.69;314587;30;4316;-75
2023/08/07 00:36:34;;;;;;;;;;;;;;;24.86;49.36;98781.00;319059;30;3112;-76
2023/08/07 00:36:44;;;;;;;;;;;;;;;24.86;49.26;98791.72;319831;30;2305;-76
2023/08/07 00:36:55;;;;;;;;;;;;;;;24.86;49.54;98780.16;318769;30;2883;-75
2023/08/07 00:37:05;;;;;;;;;;;;;;;24.84;49.52;98791.03;319368;30;1051;-75
2023/08/07 00:37:15;;;;;;;;;;;;;;;24.83;49.55;98781.34;313159;31;2686;-75
2023/08/07 00:37:25;;;;;;;;;;;;;;;24.82;49.53;98779.69;313748;31;3200;-75
2023/08/07 00:37:36;;;;;;;;;;;;;;;24.84;49.38;98787.53;311137;31;3173;-75
2023/08/07 00:37:46;;;;;;;;;;;;;;;24.80;49.16;98784.38;307344;32;1207;-75
2023/08/07 00:37:57;;;;;;;;;;;;;;;24.79;49.13;98789.91;309285;31;4349;-75
2023/08/07 00:38:07;;;;;;;;;;;;;;;24.79;49.58;98793.41;308720;31;4702;-75
2023/08/07 00:38:17;;;;;;;;;;;;;;;24.80;49.30;98786.22;307455;32;1258;-75
2023/08/07 00:38:27;;;;;;;;;;;;;;;24.78;49.48;98783.72;307137;32;4032;-75
2023/08/07 00:38:37;;;;;;;;;;;;;;;24.80;49.58;98787.03;306428;31;4306;-76
2023/08/07 00:38:48;;;;;;;;;;;;;;;24.80;49.74;98787.03;310800;31;1297;-76
2023/08/07 00:38:58;;;;;;;;;;;;;;;24.81;49.64;98788.72;307927;32;3128;-76
2023/08/07 00:39:08;;;;;;;;;;;;;;;24.80;49.76;98781.69;304140;32;2954;-76
2023/08/07 00:39:18;;;;;;;;;;;;;;;24.82;49.41;98790.38;304154;32;1204;-76
2023/08/07 00:39:29;;;;;;;;;;;;;;;24.82;49.66;98784.19;304841;32;3453;-76
2023/08/07 00:39:39;;;;;;;;;;;;;;;24.83;49.49;98794.72;303528;32;4195;-76
2023/08/07 00:39:49;;;;;;;;;;;;;;;24.82;49.46;98790.38;304068;32;1918;-76
2023/08/07 00:39:59;;;;;;;;;;;;;;;24.83;49.59;98786.69;304785;32;4664;-76
2023/08/07 00:40:10;;;;;;;;;;;;;;;24.83;49.39;98792.06;301825;32;6118;-76
2023/08/07 00:40:20;;;;;;;;;;;;;;;24.81;49.75;98783.38;301068;32;1404;-76
2023/08/07 00:40:38;;;;;;;;;;;;;;;24.82;49.60;98790.38;299191;32;6980;-76
2023/08/07 00:40:48;;;;;;;;;;;;;;;24.81;49.73;98788.72;297062;33;1374;-76
2023/08/07 00:40:59;;;;;;;;;;;;;;;24.81;49.60;98787.88;300201;32;5849;-76
2023/08/07 00:41:10;;;;;;;;;;;;;;;24.81;49.56;98794.06;298762;32;4353;-76
2023/08/07 00:41:20;;;;;;;;;;;;;;;24.81;49.54;98782.53;299029;33;1149;-76
2023/08/07 00:41:30;;;;;;;;;;;;;;;24.72;49.74;98784.41;299486;32;4477;-76
2023/08/07 00:41:40;;;;;;;;;;;;;;;24.66;49.79;98790.47;298091;32;4891;-76
2023/08/07 00:41:50;;;;;;;;;;;;;;;24.64;49.98;98781.78;297740;33;1406;-76
2023/08/07 00:42:01;;;;;;;;;;;;;;;24.63;50.12;98785.47;294351;33;6730;-76
2023/08/07 00:42:11;;;;;;;;;;;;;;;24.65;50.03;98787.97;292357;33;6866;-76
2023/08/07 00:42:21;;;;;;;;;;;;;;;24.64;49.84;98781.78;291780;33;8185;-76
2023/08/07 00:42:31;;;;;;;;;;;;;;;24.64;49.89;98776.44;294104;33;879;-76
2023/08/07 00:42:42;;;;;;;;;;;;;;;24.66;50.07;98782.44;291924;33;9820;-76
2023/08/07 00:42:52;;;;;;;;;;;;;;;24.66;50.30;98779.75;291957;33;8031;-76
2023/08/07 00:43:02;;;;;;;;;;;;;;;24.66;50.10;98785.13;295607;33;1221;-76
2023/08/07 00:45:26;;;;;;;;;;;;;;;24.71;49.90;98777.38;2494700;27;19932;-76
2023/08/07 00:45:38;;;;;;;;;;;;;;;24.73;50.02;98785.22;352176;27;4935;-75
2023/08/07 00:45:48;;;;;;;;;;;;;;;24.72;49.96;98778.22;351867;28;5178;-75
2023/08/07 00:45:59;;;;;;;;;;;;;;;24.72;49.96;98787.06;350263;28;1227;-75
2023/08/07 00:46:09;;;;;;;;;;;;;;;24.71;49.54;98777.38;349352;28;5328;-75
2023/08/07 00:46:19;;;;;;;;;;;;;;;24.73;49.93;98779.88;348838;28;1240;-75
2023/08/07 00:46:29;;;;;;;;;;;;;;;24.72;49.76;98779.03;348945;28;879;-75
2023/08/07 00:46:40;;;;;;;;;;;;;;;24.73;49.71;98785.22;348999;28;924;-75
2023/08/07 00:46:50;;;;;;;;;;;;;;;24.74;49.87;98781.56;347350;28;1357;-75
2023/08/07 00:47:00;;;;;;;;;;;;;;;24.72;49.89;98779.03;347550;28;902;-75
2023/08/07 00:47:10;;;;;;;;;;;;;;;24.71;50.14;98782.72;348660;28;1195;-75
2023/08/07 00:47:21;;;;;;;;;;;;;;;24.71;50.09;98777.38;349468;28;1430;-75
2023/08/07 00:47:31;;;;;;;;;;;;;;;24.71;49.90;98788.09;348751;28;1485;-75
2023/08/07 00:47:41;;;;;;;;;;;;;;;24.71;49.98;98785.41;348878;28;844;-75
2023/08/07 00:47:51;;;;;;;;;;;;;;;24.71;50.21;98779.22;348879;28;855;-75
2023/08/07 00:48:02;;;;;;;;;;;;;;;24.71;50.34;98777.38;350166;28;1318;-75
2023/08/07 00:48:13;;;;;;;;;;;;;;;24.69;49.95;98779.41;348948;28;843;-75
2023/08/07 00:48:23;;;;;;;;;;;;;;;24.67;50.24;98781.44;348864;28;1346;-75
2023/08/07 00:48:33;;;;;;;;;;;;;;;24.67;50.05;98780.59;349041;28;856;-75
2023/08/07 00:48:43;;;;;;;;;;;;;;;24.65;50.39;98780.78;350274;28;847;-75
2023/08/07 00:48:54;;;;;;;;;;;;;;;24.64;50.24;98787.13;348744;28;1290;-76
2023/08/07 00:49:04;;;;;;;;;;;;;;;24.64;50.25;98784.44;347771;28;1318;-76
2023/08/07 00:49:14;;;;;;;;;;;;;;;24.63;50.02;98782.78;349650;28;1327;-76
2023/08/07 00:49:24;;;;;;;;;;;;;;;24.63;50.29;98785.47;350264;28;1013;-76
2023/08/07 00:49:35;;;;;;;;;;;;;;;24.64;50.24;98788.97;347048;28;1196;-76
2023/08/07 00:49:45;;;;;;;;;;;;;;;24.64;50.54;98787.13;346072;28;1433;-76
2023/08/07 00:49:56;;;;;;;;;;;;;;;24.65;50.15;98787.97;348839;28;1322;-75
2023/08/07 00:50:06;;;;;;;;;;;;;;;24.65;50.15;98783.44;347434;28;1321;-75
2023/08/07 00:50:16;;;;;;;;;;;;;;;24.65;50.29;98785.28;348670;28;1716;-75
2023/08/07 00:50:26;;;;;;;;;;;;;;;24.65;50.37;98788.81;348990;28;851;-75
2023/08/07 00:50:37;;;;;;;;;;;;;;;24.66;50.00;98797.66;349023;28;867;-75
2023/08/07 00:50:47;;;;;;;;;;;;;;;24.66;50.38;98786.97;350133;28;1296;-75
2023/08/07 00:50:57;;;;;;;;;;;;;;;24.67;50.19;98785.94;346082;28;1171;-75
2023/08/07 00:51:07;;;;;;;;;;;;;;;24.67;50.21;98792.13;344443;28;1324;-75
2023/08/07 00:51:18;;;;;;;;;;;;;;;24.67;50.28;98786.78;343936;28;1220;-75
2023/08/07 00:51:28;;;;;;;;;;;;;;;24.66;50.36;98795.00;346157;28;1441;-75
2023/08/07 00:51:38;;;;;;;;;;;;;;;24.66;50.22;98786.97;346378;28;1008;-75
2023/08/07 00:51:48;;;;;;;;;;;;;;;24.66;50.27;98801.19;346414;28;827;-75
2023/08/07 00:51:59;;;;;;;;;;;;;;;24.65;50.07;98791.47;347549;28;1521;-75
2023/08/07 00:52:09;;;;;;;;;;;;;;;24.65;50.15;98794.16;348493;28;1193;-75
2023/08/07 00:52:19;;;;;;;;;;;;;;;24.66;50.21;98795.00;348243;28;1086;-75
2023/08/07 00:52:30;;;;;;;;;;;;;;;24.65;50.32;98794.16;343475;28;1225;-75
2023/08/07 00:52:40;;;;;;;;;;;;;;;24.66;50.23;98801.19;342097;28;1219;-75
2023/08/07 00:52:50;;;;;;;;;;;;;;;24.65;50.33;98799.50;341450;28;801;-75
2023/08/07 00:53:00;;;;;;;;;;;;;;;24.66;50.50;98795.81;340716;28;897;-75
2023/08/07 00:53:11;;;;;;;;;;;;;;;24.66;50.38;98785.13;342040;28;997;-75
2023/08/07 00:53:21;;;;;;;;;;;;;;;24.64;50.47;98792.47;345307;28;1182;-75
2023/08/07 00:53:31;;;;;;;;;;;;;;;24.64;50.35;98787.13;345046;28;1588;-75
2023/08/07 00:53:41;;;;;;;;;;;;;;;24.64;50.29;98795.16;344714;28;1546;-75
2023/08/07 00:53:52;;;;;;;;;;;;;;;24.63;50.32;98795.31;346236;28;1634;-75
2023/08/07 00:54:03;;;;;;;;;;;;;;;24.61;50.56;98792.00;342981;28;1237;-75
2023/08/07 00:54:14;;;;;;;;;;;;;;;24.61;50.40;98798.19;341765;28;1529;-75
2023/08/07 00:54:24;;;;;;;;;;;;;;;24.61;50.61;98800.84;340619;29;1377;-75
2023/08/07 00:54:35;;;;;;;;;;;;;;;24.61;50.84;98797.34;341345;28;947;-75
2023/08/07 00:54:45;;;;;;;;;;;;;;;24.60;50.77;98793.84;342630;28;2690;-75
2023/08/07 00:54:55;;;;;;;;;;;;;;;24.60;50.52;98796.50;338280;28;4593;-75
2023/08/07 00:55:05;;;;;;;;;;;;;;;24.60;50.51;98796.50;341154;28;4751;-75
2023/08/07 00:55:15;;;;;;;;;;;;;;;24.61;50.49;98792.81;344498;28;1551;-76
2023/08/07 00:55:26;;;;;;;;;;;;;;;24.62;50.53;98799.84;344296;28;3147;-75
2023/08/07 00:55:36;;;;;;;;;;;;;;;24.63;50.74;98798.84;342173;28;2342;-75
2023/08/07 00:55:46;;;;;;;;;;;;;;;24.63;50.56;98796.16;339662;28;1843;-75
2023/08/07 00:55:58;;;;;;;;;;;;;;;24.64;50.86;98802.34;344400;28;1127;-75
2023/08/07 00:56:08;;;;;;;;;;;;;;;24.64;50.69;98787.13;342222;28;1686;-75
2023/08/07 00:56:18;;;;;;;;;;;;;;;24.64;50.87;98795.16;343072;28;1870;-75
2023/08/07 00:56:28;;;;;;;;;;;;;;;24.64;50.74;98797.84;340799;29;1181;-75
2023/08/07 00:56:39;;;;;;;;;;;;;;;24.63;50.49;98790.81;340365;29;1627;-75
2023/08/07 00:56:49;;;;;;;;;;;;;;;24.60;50.78;98791.16;339806;29;874;-75
2023/08/07 00:57:01;;;;;;;;;;;;;;;24.56;50.64;98795.19;342274;28;790;-75
2023/08/07 00:57:12;;;;;;;;;;;;;;;24.49;50.98;98788.84;335452;29;1397;-75
2023/08/07 00:57:24;;;;;;;;;;;;;;;24.45;51.14;98793.69;334568;29;1480;-76
2023/08/07 00:57:34;;;;;;;;;;;;;;;24.46;51.23;98802.56;335112;29;1981;-74
2023/08/07 00:57:45;;;;;;;;;;;;;;;24.44;50.99;98791.19;331628;29;1265;-77
2023/08/07 00:57:55;;;;;;;;;;;;;;;24.45;51.34;98787.50;333791;29;2331;-77
2023/08/07 00:58:05;;;;;;;;;;;;;;;24.42;51.30;98796.72;331146;29;2123;-77
2023/08/07 00:58:15;;;;;;;;;;;;;;;24.42;51.04;98793.19;328762;29;2515;-77
2023/08/07 00:58:26;;;;;;;;;;;;;;;24.39;51.39;98793.53;330620;29;1278;-77
2023/08/07 00:58:36;;;;;;;;;;;;;;;24.38;51.50;98791.88;331038;29;2641;-78
2023/08/07 00:58:46;;;;;;;;;;;;;;;24.38;51.48;98792.72;331723;29;1809;-78
2023/08/07 00:58:57;;;;;;;;;;;;;;;24.39;51.22;98793.53;333035;29;1296;-78
2023/08/07 00:59:07;;;;;;;;;;;;;;;24.39;51.20;98798.91;330233;29;1485;-78
2023/08/07 00:59:18;;;;;;;;;;;;;;;24.38;51.26;98805.25;329876;29;2094;-78
2023/08/07 00:59:28;;;;;;;;;;;;;;;24.39;51.39;98793.53;326937;30;1104;-78